sensor_id;sensor_type;location;lat;lon;timestamp;pressure;altitude;pressure_sealevel;temperature
63113;BMP280;49206;48.020;21.378;2022-12-07T00:01:04;100393.69;;;0.65
63113;BMP280;49206;48.020;21.378;2022-12-07T00:02:07;100393.97;;;0.69
63113;BMP280;49206;48.020;21.378;2022-12-07T00:03:09;100397.59;;;0.68
63113;BMP280;49206;48.020;21.378;2022-12-07T00:04:14;100389.53;;;0.69
63113;BMP280;49206;48.020;21.378;2022-12-07T00:05:17;100400.72;;;0.65
63113;BMP280;49206;48.020;21.378;2022-12-07T00:06:20;100396.03;;;0.57
63113;BMP280;49206;48.020;21.378;2022-12-07T00:07:22;100399.16;;;0.64
63113;BMP280;49206;48.020;21.378;2022-12-07T00:08:30;100404.38;;;0.64
63113;BMP280;49206;48.020;21.378;2022-12-07T00:09:32;100405.66;;;0.67
63113;BMP280;49206;48.020;21.378;2022-12-07T00:10:34;100411.63;;;0.67
63113;BMP280;49206;48.020;21.378;2022-12-07T00:11:37;100408.75;;;0.68
63113;BMP280;49206;48.020;21.378;2022-12-07T00:12:39;100412.66;;;0.66
63113;BMP280;49206;48.020;21.378;2022-12-07T00:13:42;100409.28;;;0.65
63113;BMP280;49206;48.020;21.378;2022-12-07T00:14:46;100412.91;;;0.64
63113;BMP280;49206;48.020;21.378;2022-12-07T00:15:48;100415.50;;;0.64
63113;BMP280;49206;48.020;21.378;2022-12-07T00:16:51;100410.31;;;0.64
63113;BMP280;49206;48.020;21.378;2022-12-07T00:17:54;100408.75;;;0.58
63113;BMP280;49206;48.020;21.378;2022-12-07T00:18:57;100415.50;;;0.59
63113;BMP280;49206;48.020;21.378;2022-12-07T00:20:02;100406.69;;;0.60
63113;BMP280;49206;48.020;21.378;2022-12-07T00:21:14;100406.16;;;0.58
63113;BMP280;49206;48.020;21.378;2022-12-07T00:22:17;100405.91;;;0.55
63113;BMP280;49206;48.020;21.378;2022-12-07T00:23:19;100405.38;;;0.53
63113;BMP280;49206;48.020;21.378;2022-12-07T00:24:21;100402.03;;;0.57
63113;BMP280;49206;48.020;21.378;2022-12-07T00:25:24;100396.28;;;0.50
63113;BMP280;49206;48.020;21.378;2022-12-07T00:26:30;100398.63;;;0.52
63113;BMP280;49206;48.020;21.378;2022-12-07T00:27:35;100396.53;;;0.49
63113;BMP280;49206;48.020;21.378;2022-12-07T00:28:37;100397.84;;;0.51
63113;BMP280;49206;48.020;21.378;2022-12-07T00:29:40;100400.97;;;0.48
63113;BMP280;49206;48.020;21.378;2022-12-07T00:30:42;100396.78;;;0.52
63113;BMP280;49206;48.020;21.378;2022-12-07T00:31:45;100405.38;;;0.53
63113;BMP280;49206;48.020;21.378;2022-12-07T00:32:49;100407.19;;;0.47
63113;BMP280;49206;48.020;21.378;2022-12-07T00:33:52;100403.28;;;0.50
63113;BMP280;49206;48.020;21.378;2022-12-07T00:34:55;100399.94;;;0.49
63113;BMP280;49206;48.020;21.378;2022-12-07T00:35:58;100403.81;;;0.47
63113;BMP280;49206;48.020;21.378;2022-12-07T00:37:01;100405.66;;;0.32
63113;BMP280;49206;48.020;21.378;2022-12-07T00:38:03;100404.31;;;0.34
63113;BMP280;49206;48.020;21.378;2022-12-07T00:39:06;100405.13;;;0.34
63113;BMP280;49206;48.020;21.378;2022-12-07T00:40:09;100411.59;;;0.37
63113;BMP280;49206;48.020;21.378;2022-12-07T00:41:20;100417.31;;;0.34
63113;BMP280;49206;48.020;21.378;2022-12-07T00:42:23;100412.63;;;0.26
63113;BMP280;49206;48.020;21.378;2022-12-07T00:43:26;100414.19;;;0.22
63113;BMP280;49206;48.020;21.378;2022-12-07T00:44:28;100410.03;;;0.21
63113;BMP280;49206;48.020;21.378;2022-12-07T00:45:30;100413.69;;;0.25
63113;BMP280;49206;48.020;21.378;2022-12-07T00:46:33;100405.66;;;0.27
63113;BMP280;49206;48.020;21.378;2022-12-07T00:47:35;100405.38;;;0.28
63113;BMP280;49206;48.020;21.378;2022-12-07T00:48:38;100403.81;;;0.27
63113;BMP280;49206;48.020;21.378;2022-12-07T00:49:41;100405.09;;;0.29
63113;BMP280;49206;48.020;21.378;2022-12-07T00:50:43;100411.31;;;0.33
63113;BMP280;49206;48.020;21.378;2022-12-07T00:51:48;100411.59;;;0.32
63113;BMP280;49206;48.020;21.378;2022-12-07T00:52:50;100416.28;;;0.30
63113;BMP280;49206;48.020;21.378;2022-12-07T00:53:53;100407.97;;;0.33
63113;BMP280;49206;48.020;21.378;2022-12-07T00:54:55;100409.00;;;0.32
63113;BMP280;49206;48.020;21.378;2022-12-07T00:55:58;100407.69;;;0.29
63113;BMP280;49206;48.020;21.378;2022-12-07T00:57:00;100413.19;;;0.23
63113;BMP280;49206;48.020;21.378;2022-12-07T00:58:03;100415.47;;;0.19
63113;BMP280;49206;48.020;21.378;2022-12-07T00:59:05;100418.59;;;0.17
63113;BMP280;49206;48.020;21.378;2022-12-07T01:00:08;100421.44;;;0.10
63113;BMP280;49206;48.020;21.378;2022-12-07T01:01:11;100422.44;;;0.09
63113;BMP280;49206;48.020;21.378;2022-12-07T01:02:14;100421.44;;;0.15
63113;BMP280;49206;48.020;21.378;2022-12-07T01:03:17;100424.81;;;0.20
63113;BMP280;49206;48.020;21.378;2022-12-07T01:04:20;100427.16;;;0.22
63113;BMP280;49206;48.020;21.378;2022-12-07T01:05:22;100421.22;;;0.27
63113;BMP280;49206;48.020;21.378;2022-12-07T01:06:25;100419.66;;;0.26
63113;BMP280;49206;48.020;21.378;2022-12-07T01:07:27;100420.97;;;0.23
63113;BMP280;49206;48.020;21.378;2022-12-07T01:08:29;100424.31;;;0.28
63113;BMP280;49206;48.020;21.378;2022-12-07T01:09:32;100420.19;;;0.28
63113;BMP280;49206;48.020;21.378;2022-12-07T01:10:34;100421.97;;;0.27
63113;BMP280;49206;48.020;21.378;2022-12-07T01:11:37;100420.69;;;0.29
63113;BMP280;49206;48.020;21.378;2022-12-07T01:12:40;100419.13;;;0.28
63113;BMP280;49206;48.020;21.378;2022-12-07T01:13:43;100417.84;;;0.26
63113;BMP280;49206;48.020;21.378;2022-12-07T01:14:45;100423.00;;;0.21
63113;BMP280;49206;48.020;21.378;2022-12-07T01:15:48;100418.06;;;0.19
63113;BMP280;49206;48.020;21.378;2022-12-07T01:16:51;100423.81;;;0.22
63113;BMP280;49206;48.020;21.378;2022-12-07T01:17:53;100419.38;;;0.22
63113;BMP280;49206;48.020;21.378;2022-12-07T01:18:57;100422.22;;;0.20
63113;BMP280;49206;48.020;21.378;2022-12-07T01:20:00;100426.13;;;0.18
63113;BMP280;49206;48.020;21.378;2022-12-07T01:22:06;100423.53;;;0.18
63113;BMP280;49206;48.020;21.378;2022-12-07T01:23:08;100416.53;;;0.18
63113;BMP280;49206;48.020;21.378;2022-12-07T01:24:11;100412.63;;;0.21
63113;BMP280;49206;48.020;21.378;2022-12-07T01:25:13;100417.81;;;0.21
63113;BMP280;49206;48.020;21.378;2022-12-07T01:26:18;100416.78;;;0.17
63113;BMP280;49206;48.020;21.378;2022-12-07T01:27:22;100405.09;;;0.24
63113;BMP280;49206;48.020;21.378;2022-12-07T01:28:24;100404.34;;;0.24
63113;BMP280;49206;48.020;21.378;2022-12-07T01:29:27;100400.44;;;0.27
63113;BMP280;49206;48.020;21.378;2022-12-07T01:30:29;100402.50;;;0.24
63113;BMP280;49206;48.020;21.378;2022-12-07T01:31:32;100401.19;;;0.22
63113;BMP280;49206;48.020;21.378;2022-12-07T01:32:34;100398.84;;;0.20
63113;BMP280;49206;48.020;21.378;2022-12-07T01:33:38;100396.56;;;0.29
63113;BMP280;49206;48.020;21.378;2022-12-07T01:34:41;100401.22;;;0.37
63113;BMP280;49206;48.020;21.378;2022-12-07T01:35:43;100397.31;;;0.34
63113;BMP280;49206;48.020;21.378;2022-12-07T01:36:45;100397.06;;;0.31
63113;BMP280;49206;48.020;21.378;2022-12-07T01:37:48;100397.84;;;0.32
63113;BMP280;49206;48.020;21.378;2022-12-07T01:38:53;100397.56;;;0.33
63113;BMP280;49206;48.020;21.378;2022-12-07T01:39:58;100396.28;;;0.35
63113;BMP280;49206;48.020;21.378;2022-12-07T01:41:03;100398.63;;;0.32
63113;BMP280;49206;48.020;21.378;2022-12-07T01:42:07;100394.47;;;0.31
63113;BMP280;49206;48.020;21.378;2022-12-07T01:43:20;100396.31;;;0.31
63113;BMP280;49206;48.020;21.378;2022-12-07T01:44:28;100392.13;;;0.24
63113;BMP280;49206;48.020;21.378;2022-12-07T01:45:40;100392.13;;;0.34
63113;BMP280;49206;48.020;21.378;2022-12-07T01:46:47;100391.34;;;0.24
63113;BMP280;49206;48.020;21.378;2022-12-07T01:47:55;100389.81;;;0.23
63113;BMP280;49206;48.020;21.378;2022-12-07T01:48:59;100395.50;;;0.30
63113;BMP280;49206;48.020;21.378;2022-12-07T01:50:02;100397.03;;;0.16
63113;BMP280;49206;48.020;21.378;2022-12-07T01:51:09;100391.34;;;0.14
63113;BMP280;49206;48.020;21.378;2022-12-07T01:52:20;100399.63;;;0.11
63113;BMP280;49206;48.020;21.378;2022-12-07T01:53:26;100395.50;;;0.20
63113;BMP280;49206;48.020;21.378;2022-12-07T01:54:30;100400.13;;;0.08
63113;BMP280;49206;48.020;21.378;2022-12-07T01:55:34;100394.19;;;0.13
63113;BMP280;49206;48.020;21.378;2022-12-07T01:56:37;100398.06;;;0.05
63113;BMP280;49206;48.020;21.378;2022-12-07T01:57:47;100393.91;;;0.04
63113;BMP280;49206;48.020;21.378;2022-12-07T01:58:51;100392.09;;;0.04
63113;BMP280;49206;48.020;21.378;2022-12-07T01:59:55;100395.19;;;0.06
63113;BMP280;49206;48.020;21.378;2022-12-07T02:01:13;100396.78;;;0.08
63113;BMP280;49206;48.020;21.378;2022-12-07T02:02:20;100392.59;;;0.06
63113;BMP280;49206;48.020;21.378;2022-12-07T02:03:41;100398.31;;;0.03
63113;BMP280;49206;48.020;21.378;2022-12-07T02:04:43;100394.69;;;0.04
63113;BMP280;49206;48.020;21.378;2022-12-07T02:05:46;100395.97;;;0.02
63113;BMP280;49206;48.020;21.378;2022-12-07T02:06:50;100394.94;;;0.08
63113;BMP280;49206;48.020;21.378;2022-12-07T02:07:55;100388.22;;;0.12
63113;BMP280;49206;48.020;21.378;2022-12-07T02:08:58;100387.16;;;0.08
63113;BMP280;49206;48.020;21.378;2022-12-07T02:10:20;100390.81;;;0.07
63113;BMP280;49206;48.020;21.378;2022-12-07T02:11:24;100390.53;;;0.03
63113;BMP280;49206;48.020;21.378;2022-12-07T02:12:26;100387.69;;;0.00
63113;BMP280;49206;48.020;21.378;2022-12-07T02:13:32;100389.75;;;0.08
63113;BMP280;49206;48.020;21.378;2022-12-07T02:14:35;100386.38;;;0.03
63113;BMP280;49206;48.020;21.378;2022-12-07T02:16:13;100389.72;;;-0.02
63113;BMP280;49206;48.020;21.378;2022-12-07T02:21:58;100371.06;;;0.01
63113;BMP280;49206;48.020;21.378;2022-12-07T02:22:51;100376.75;;;-0.12
63113;BMP280;49206;48.020;21.378;2022-12-07T02:27:56;100382.97;;;-0.18
63113;BMP280;49206;48.020;21.378;2022-12-07T02:29:12;100377.50;;;-0.17
63113;BMP280;49206;48.020;21.378;2022-12-07T02:30:28;100382.19;;;-0.09
63113;BMP280;49206;48.020;21.378;2022-12-07T02:31:33;100383.25;;;-0.05
63113;BMP280;49206;48.020;21.378;2022-12-07T02:32:54;100381.94;;;-0.02
63113;BMP280;49206;48.020;21.378;2022-12-07T02:34:07;100383.78;;;0.03
63113;BMP280;49206;48.020;21.378;2022-12-07T02:36:26;100373.69;;;0.06
63113;BMP280;49206;48.020;21.378;2022-12-07T02:39:08;100377.31;;;0.15
63113;BMP280;49206;48.020;21.378;2022-12-07T02:40:18;100381.47;;;0.21
63113;BMP280;49206;48.020;21.378;2022-12-07T02:41:36;100387.47;;;0.27
63113;BMP280;49206;48.020;21.378;2022-12-07T02:42:47;100377.59;;;0.23
63113;BMP280;49206;48.020;21.378;2022-12-07T02:43:57;100385.38;;;0.28
63113;BMP280;49206;48.020;21.378;2022-12-07T02:45:02;100385.13;;;0.30
63113;BMP280;49206;48.020;21.378;2022-12-07T02:46:08;100380.44;;;0.32
63113;BMP280;49206;48.020;21.378;2022-12-07T02:47:14;100378.59;;;0.42
63113;BMP280;49206;48.020;21.378;2022-12-07T02:48:19;100379.91;;;0.40
63113;BMP280;49206;48.020;21.378;2022-12-07T02:49:23;100386.41;;;0.37
63113;BMP280;49206;48.020;21.378;2022-12-07T02:50:27;100370.81;;;0.37
63113;BMP280;49206;48.020;21.378;2022-12-07T02:51:31;100373.69;;;0.46
63113;BMP280;49206;48.020;21.378;2022-12-07T02:52:34;100378.59;;;0.42
63113;BMP280;49206;48.020;21.378;2022-12-07T02:53:41;100364.06;;;0.46
63113;BMP280;49206;48.020;21.378;2022-12-07T02:54:44;100367.47;;;0.52
63113;BMP280;49206;48.020;21.378;2022-12-07T02:55:46;100370.56;;;0.54
63113;BMP280;49206;48.020;21.378;2022-12-07T03:00:39;100376.81;;;0.63
63113;BMP280;49206;48.020;21.378;2022-12-07T03:03:10;100388.50;;;0.60
63113;BMP280;49206;48.020;21.378;2022-12-07T03:05:46;100382.53;;;0.65
63113;BMP280;49206;48.020;21.378;2022-12-07T03:07:01;100389.28;;;0.66
63113;BMP280;49206;48.020;21.378;2022-12-07T03:08:43;100383.84;;;0.57
63113;BMP280;49206;48.020;21.378;2022-12-07T03:09:57;100382.78;;;0.58
63113;BMP280;49206;48.020;21.378;2022-12-07T03:11:10;100384.59;;;0.63
63113;BMP280;49206;48.020;21.378;2022-12-07T03:12:37;100383.53;;;0.59
63113;BMP280;49206;48.020;21.378;2022-12-07T03:15:12;100367.44;;;0.67
63113;BMP280;49206;48.020;21.378;2022-12-07T03:16:35;100367.69;;;0.70
63113;BMP280;49206;48.020;21.378;2022-12-07T03:17:40;100362.50;;;0.65
63113;BMP280;49206;48.020;21.378;2022-12-07T03:18:49;100360.44;;;0.68
63113;BMP280;49206;48.020;21.378;2022-12-07T03:19:56;100362.25;;;0.72
63113;BMP280;49206;48.020;21.378;2022-12-07T03:21:02;100362.25;;;0.72
63113;BMP280;49206;48.020;21.378;2022-12-07T03:22:10;100364.34;;;0.75
63113;BMP280;49206;48.020;21.378;2022-12-07T03:23:13;100358.09;;;0.66
63113;BMP280;49206;48.020;21.378;2022-12-07T03:24:21;100364.34;;;0.55
63113;BMP280;49206;48.020;21.378;2022-12-07T03:25:24;100367.97;;;0.59
63113;BMP280;49206;48.020;21.378;2022-12-07T03:26:34;100373.44;;;0.68
63113;BMP280;49206;48.020;21.378;2022-12-07T03:27:54;100377.84;;;0.72
63113;BMP280;49206;48.020;21.378;2022-12-07T03:29:02;100369.00;;;0.73
63113;BMP280;49206;48.020;21.378;2022-12-07T03:30:13;100366.13;;;0.74
63113;BMP280;49206;48.020;21.378;2022-12-07T03:31:36;100371.09;;;0.71
63113;BMP280;49206;48.020;21.378;2022-12-07T03:32:53;100368.00;;;0.69
63113;BMP280;49206;48.020;21.378;2022-12-07T03:34:24;100370.56;;;0.59
63113;BMP280;49206;48.020;21.378;2022-12-07T03:35:31;100364.31;;;0.50
63113;BMP280;49206;48.020;21.378;2022-12-07T03:36:59;100376.03;;;0.63
63113;BMP280;49206;48.020;21.378;2022-12-07T03:38:19;100376.28;;;0.61
63113;BMP280;49206;48.020;21.378;2022-12-07T03:40:41;100364.34;;;0.55
63113;BMP280;49206;48.020;21.378;2022-12-07T03:41:45;100377.59;;;0.53
63113;BMP280;49206;48.020;21.378;2022-12-07T03:42:48;100377.59;;;0.58
63113;BMP280;49206;48.020;21.378;2022-12-07T03:43:54;100380.19;;;0.63
63113;BMP280;49206;48.020;21.378;2022-12-07T03:44:57;100365.38;;;0.69
63113;BMP280;49206;48.020;21.378;2022-12-07T03:47:33;100372.66;;;0.67
63113;BMP280;49206;48.020;21.378;2022-12-07T03:48:41;100376.28;;;0.71
63113;BMP280;49206;48.020;21.378;2022-12-07T03:50:07;100365.63;;;0.77
63113;BMP280;49206;48.020;21.378;2022-12-07T03:51:36;100367.97;;;0.74
63113;BMP280;49206;48.020;21.378;2022-12-07T03:52:43;100361.19;;;0.73
63113;BMP280;49206;48.020;21.378;2022-12-07T03:55:29;100353.41;;;0.73
63113;BMP280;49206;48.020;21.378;2022-12-07T03:56:33;100354.72;;;0.70
63113;BMP280;49206;48.020;21.378;2022-12-07T03:57:37;100348.75;;;0.65
63113;BMP280;49206;48.020;21.378;2022-12-07T03:58:41;100350.81;;;0.63
63113;BMP280;49206;48.020;21.378;2022-12-07T03:59:44;100357.31;;;0.65
63113;BMP280;49206;48.020;21.378;2022-12-07T04:00:49;100352.91;;;0.71
63113;BMP280;49206;48.020;21.378;2022-12-07T04:01:53;100350.56;;;0.69
63113;BMP280;49206;48.020;21.378;2022-12-07T04:02:56;100344.06;;;0.62
63113;BMP280;49206;48.020;21.378;2022-12-07T04:03:59;100340.97;;;0.55
63113;BMP280;49206;48.020;21.378;2022-12-07T04:05:02;100334.47;;;0.57
63113;BMP280;49206;48.020;21.378;2022-12-07T04:06:05;100339.41;;;0.64
63113;BMP280;49206;48.020;21.378;2022-12-07T04:07:10;100348.78;;;0.55
63113;BMP280;49206;48.020;21.378;2022-12-07T04:08:12;100344.88;;;0.57
63113;BMP280;49206;48.020;21.378;2022-12-07T04:09:16;100344.88;;;0.63
63113;BMP280;49206;48.020;21.378;2022-12-07T04:10:19;100345.88;;;0.61
63113;BMP280;49206;48.020;21.378;2022-12-07T04:11:21;100347.22;;;0.64
63113;BMP280;49206;48.020;21.378;2022-12-07T04:12:23;100350.06;;;0.68
63113;BMP280;49206;48.020;21.378;2022-12-07T04:13:26;100349.25;;;0.72
63113;BMP280;49206;48.020;21.378;2022-12-07T04:14:28;100346.66;;;0.77
63113;BMP280;49206;48.020;21.378;2022-12-07T04:15:31;100352.38;;;0.79
63113;BMP280;49206;48.020;21.378;2022-12-07T04:16:33;100349.53;;;0.76
63113;BMP280;49206;48.020;21.378;2022-12-07T04:17:42;100357.56;;;0.79
63113;BMP280;49206;48.020;21.378;2022-12-07T04:18:46;100358.34;;;0.79
63113;BMP280;49206;48.020;21.378;2022-12-07T04:19:48;100345.63;;;0.83
63113;BMP280;49206;48.020;21.378;2022-12-07T04:20:51;100358.06;;;0.86
63113;BMP280;49206;48.020;21.378;2022-12-07T04:21:54;100353.91;;;0.85
63113;BMP280;49206;48.020;21.378;2022-12-07T04:23:03;100348.97;;;0.88
63113;BMP280;49206;48.020;21.378;2022-12-07T04:24:06;100357.56;;;0.89
63113;BMP280;49206;48.020;21.378;2022-12-07T04:25:09;100359.66;;;0.87
63113;BMP280;49206;48.020;21.378;2022-12-07T04:26:11;100359.13;;;0.85
63113;BMP280;49206;48.020;21.378;2022-12-07T04:27:13;100355.47;;;0.86
63113;BMP280;49206;48.020;21.378;2022-12-07T04:28:16;100361.97;;;0.88
63113;BMP280;49206;48.020;21.378;2022-12-07T04:29:19;100359.09;;;0.90
63113;BMP280;49206;48.020;21.378;2022-12-07T04:30:21;100371.34;;;0.95
63113;BMP280;49206;48.020;21.378;2022-12-07T04:31:24;100359.09;;;0.90
63113;BMP280;49206;48.020;21.378;2022-12-07T04:32:26;100349.75;;;0.89
63113;BMP280;49206;48.020;21.378;2022-12-07T04:33:29;100354.94;;;0.94
63113;BMP280;49206;48.020;21.378;2022-12-07T04:34:31;100369.00;;;0.93
63113;BMP280;49206;48.020;21.378;2022-12-07T04:35:33;100361.44;;;1.02
63113;BMP280;49206;48.020;21.378;2022-12-07T04:36:37;100372.88;;;1.06
63113;BMP280;49206;48.020;21.378;2022-12-07T04:37:39;100366.63;;;0.97
63113;BMP280;49206;48.020;21.378;2022-12-07T04:38:41;100364.56;;;0.93
63113;BMP280;49206;48.020;21.378;2022-12-07T04:39:44;100365.34;;;0.94
63113;BMP280;49206;48.020;21.378;2022-12-07T04:40:49;100365.34;;;0.99
63113;BMP280;49206;48.020;21.378;2022-12-07T04:41:52;100365.88;;;1.01
63113;BMP280;49206;48.020;21.378;2022-12-07T04:43:01;100363.78;;;1.03
63113;BMP280;49206;48.020;21.378;2022-12-07T04:44:04;100364.84;;;0.97
63113;BMP280;49206;48.020;21.378;2022-12-07T04:45:09;100364.28;;;0.95
63113;BMP280;49206;48.020;21.378;2022-12-07T04:46:11;100365.34;;;0.99
63113;BMP280;49206;48.020;21.378;2022-12-07T04:47:14;100360.66;;;1.01
63113;BMP280;49206;48.020;21.378;2022-12-07T04:48:16;100366.91;;;0.95
63113;BMP280;49206;48.020;21.378;2022-12-07T04:49:19;100365.84;;;0.91
63113;BMP280;49206;48.020;21.378;2022-12-07T04:50:22;100362.25;;;0.92
63113;BMP280;49206;48.020;21.378;2022-12-07T04:51:29;100367.16;;;0.99
63113;BMP280;49206;48.020;21.378;2022-12-07T04:52:31;100360.66;;;1.01
63113;BMP280;49206;48.020;21.378;2022-12-07T04:53:34;100359.09;;;1.00
63113;BMP280;49206;48.020;21.378;2022-12-07T04:54:36;100358.09;;;0.96
63113;BMP280;49206;48.020;21.378;2022-12-07T04:55:38;100359.63;;;0.97
63113;BMP280;49206;48.020;21.378;2022-12-07T04:56:41;100352.88;;;0.96
63113;BMP280;49206;48.020;21.378;2022-12-07T04:57:43;100363.25;;;0.91
63113;BMP280;49206;48.020;21.378;2022-12-07T04:58:47;100368.97;;;1.03
63113;BMP280;49206;48.020;21.378;2022-12-07T04:59:49;100357.50;;;1.09
63113;BMP280;49206;48.020;21.378;2022-12-07T05:00:54;100360.13;;;0.99
63113;BMP280;49206;48.020;21.378;2022-12-07T05:01:57;100357.53;;;0.99
63113;BMP280;49206;48.020;21.378;2022-12-07T05:03:00;100352.59;;;0.98
63113;BMP280;49206;48.020;21.378;2022-12-07T05:04:03;100360.66;;;1.01
63113;BMP280;49206;48.020;21.378;2022-12-07T05:05:05;100358.56;;;1.03
63113;BMP280;49206;48.020;21.378;2022-12-07T05:06:10;100356.50;;;1.00
63113;BMP280;49206;48.020;21.378;2022-12-07T05:07:14;100358.56;;;1.08
63113;BMP280;49206;48.020;21.378;2022-12-07T05:08:17;100357.25;;;1.06
63113;BMP280;49206;48.020;21.378;2022-12-07T05:09:19;100358.31;;;1.00
63113;BMP280;49206;48.020;21.378;2022-12-07T05:10:22;100357.03;;;0.97
63113;BMP280;49206;48.020;21.378;2022-12-07T05:11:24;100357.78;;;1.02
63113;BMP280;49206;48.020;21.378;2022-12-07T05:12:42;100353.38;;;1.03
63113;BMP280;49206;48.020;21.378;2022-12-07T05:13:44;100359.59;;;1.07
63113;BMP280;49206;48.020;21.378;2022-12-07T05:14:47;100349.69;;;1.14
63113;BMP280;49206;48.020;21.378;2022-12-07T05:15:49;100358.56;;;1.03
63113;BMP280;49206;48.020;21.378;2022-12-07T05:16:52;100347.66;;;1.06
63113;BMP280;49206;48.020;21.378;2022-12-07T05:17:55;100344.78;;;1.08
63113;BMP280;49206;48.020;21.378;2022-12-07T05:18:58;100349.19;;;1.12
63113;BMP280;49206;48.020;21.378;2022-12-07T05:20:00;100342.69;;;1.10
63113;BMP280;49206;48.020;21.378;2022-12-07T05:21:03;100347.09;;;1.09
63113;BMP280;49206;48.020;21.378;2022-12-07T05:22:06;100345.81;;;1.12
63113;BMP280;49206;48.020;21.378;2022-12-07T05:23:08;100344.75;;;1.18
63113;BMP280;49206;48.020;21.378;2022-12-07T05:24:13;100347.63;;;1.16
63113;BMP280;49206;48.020;21.378;2022-12-07T05:25:16;100347.09;;;1.14
63113;BMP280;49206;48.020;21.378;2022-12-07T05:26:18;100347.63;;;1.16
63113;BMP280;49206;48.020;21.378;2022-12-07T05:27:20;100347.88;;;1.15
63113;BMP280;49206;48.020;21.378;2022-12-07T05:28:23;100355.16;;;1.18
63113;BMP280;49206;48.020;21.378;2022-12-07T05:29:25;100351.00;;;1.17
63113;BMP280;49206;48.020;21.378;2022-12-07T05:30:28;100347.63;;;1.11
63113;BMP280;49206;48.020;21.378;2022-12-07T05:31:30;100349.72;;;1.09
63113;BMP280;49206;48.020;21.378;2022-12-07T05:32:33;100343.97;;;1.17
63113;BMP280;49206;48.020;21.378;2022-12-07T05:33:36;100346.56;;;1.17
63113;BMP280;49206;48.020;21.378;2022-12-07T05:34:38;100346.56;;;1.22
63113;BMP280;49206;48.020;21.378;2022-12-07T05:35:40;100339.31;;;1.19
63113;BMP280;49206;48.020;21.378;2022-12-07T05:36:44;100353.59;;;1.22
63113;BMP280;49206;48.020;21.378;2022-12-07T05:37:46;100347.38;;;1.18
63113;BMP280;49206;48.020;21.378;2022-12-07T05:38:49;100346.31;;;1.19
63113;BMP280;49206;48.020;21.378;2022-12-07T05:39:51;100341.38;;;1.12
63113;BMP280;49206;48.020;21.378;2022-12-07T05:40:54;100333.84;;;1.11
63113;BMP280;49206;48.020;21.378;2022-12-07T05:41:56;100342.94;;;1.13
63113;BMP280;49206;48.020;21.378;2022-12-07T05:43:16;100341.38;;;1.17
63113;BMP280;49206;48.020;21.378;2022-12-07T05:44:18;100337.22;;;1.16
63113;BMP280;49206;48.020;21.378;2022-12-07T05:45:21;100343.19;;;1.17
63113;BMP280;49206;48.020;21.378;2022-12-07T05:46:23;100333.56;;;1.17
63113;BMP280;49206;48.020;21.378;2022-12-07T05:47:26;100338.78;;;1.17
63113;BMP280;49206;48.020;21.378;2022-12-07T05:48:28;100341.34;;;1.22
63113;BMP280;49206;48.020;21.378;2022-12-07T05:49:30;100338.75;;;1.27
63113;BMP280;49206;48.020;21.378;2022-12-07T05:50:33;100336.94;;;1.23
63113;BMP280;49206;48.020;21.378;2022-12-07T05:51:35;100337.22;;;1.21
63113;BMP280;49206;48.020;21.378;2022-12-07T05:52:38;100340.06;;;1.25
63113;BMP280;49206;48.020;21.378;2022-12-07T05:53:40;100345.78;;;1.22
63113;BMP280;49206;48.020;21.378;2022-12-07T05:54:43;100341.34;;;1.27
63113;BMP280;49206;48.020;21.378;2022-12-07T05:55:45;100340.81;;;1.30
63113;BMP280;49206;48.020;21.378;2022-12-07T05:56:47;100349.13;;;1.27
63113;BMP280;49206;48.020;21.378;2022-12-07T05:57:50;100347.59;;;1.26
63113;BMP280;49206;48.020;21.378;2022-12-07T05:59:11;100347.03;;;1.34
63113;BMP280;49206;48.020;21.378;2022-12-07T06:00:26;100343.94;;;1.27
63113;BMP280;49206;48.020;21.378;2022-12-07T06:01:28;100346.03;;;1.25
63113;BMP280;49206;48.020;21.378;2022-12-07T06:02:30;100350.44;;;1.25
63113;BMP280;49206;48.020;21.378;2022-12-07T06:03:33;100356.19;;;1.22
63113;BMP280;49206;48.020;21.378;2022-12-07T06:04:41;100345.78;;;1.22
63113;BMP280;49206;48.020;21.378;2022-12-07T06:05:43;100345.25;;;1.25
63113;BMP280;49206;48.020;21.378;2022-12-07T06:06:46;100353.59;;;1.22
63113;BMP280;49206;48.020;21.378;2022-12-07T06:07:48;100347.34;;;1.23
63113;BMP280;49206;48.020;21.378;2022-12-07T06:08:51;100350.19;;;1.26
63113;BMP280;49206;48.020;21.378;2022-12-07T06:09:53;100347.06;;;1.29
63113;BMP280;49206;48.020;21.378;2022-12-07T06:10:55;100357.47;;;1.29
63113;BMP280;49206;48.020;21.378;2022-12-07T06:12:16;100354.88;;;1.29
63113;BMP280;49206;48.020;21.378;2022-12-07T06:13:37;100353.81;;;1.30
63113;BMP280;49206;48.020;21.378;2022-12-07T06:14:46;100351.25;;;1.25
63113;BMP280;49206;48.020;21.378;2022-12-07T06:15:48;100350.72;;;1.28
63113;BMP280;49206;48.020;21.378;2022-12-07T06:16:51;100354.91;;;1.24
63113;BMP280;49206;48.020;21.378;2022-12-07T06:17:55;100353.84;;;1.25
63113;BMP280;49206;48.020;21.378;2022-12-07T06:18:57;100357.47;;;1.29
63113;BMP280;49206;48.020;21.378;2022-12-07T06:19:59;100361.88;;;1.29
63113;BMP280;49206;48.020;21.378;2022-12-07T06:21:02;100353.59;;;1.27
63113;BMP280;49206;48.020;21.378;2022-12-07T06:22:05;100357.97;;;1.31
63113;BMP280;49206;48.020;21.378;2022-12-07T06:23:08;100353.81;;;1.30
63113;BMP280;49206;48.020;21.378;2022-12-07T06:24:11;100357.47;;;1.29
63113;BMP280;49206;48.020;21.378;2022-12-07T06:25:14;100356.16;;;1.32
63113;BMP280;49206;48.020;21.378;2022-12-07T06:26:16;100350.16;;;1.31
63113;BMP280;49206;48.020;21.378;2022-12-07T06:27:19;100346.81;;;1.31
63113;BMP280;49206;48.020;21.378;2022-12-07T06:28:22;100353.28;;;1.33
63113;BMP280;49206;48.020;21.378;2022-12-07T06:29:24;100355.88;;;1.33
63113;BMP280;49206;48.020;21.378;2022-12-07T06:30:26;100355.09;;;1.33
63113;BMP280;49206;48.020;21.378;2022-12-07T06:31:29;100355.88;;;1.33
63113;BMP280;49206;48.020;21.378;2022-12-07T06:32:32;100348.06;;;1.33
63113;BMP280;49206;48.020;21.378;2022-12-07T06:33:34;100352.00;;;1.31
63113;BMP280;49206;48.020;21.378;2022-12-07T06:34:37;100353.56;;;1.32
63113;BMP280;49206;48.020;21.378;2022-12-07T06:35:39;100358.47;;;1.33